METAR Data
IDs: Format: Raw Decoded Include TAF

Data at: 2203 UTC 01 Dec 2021

EGXV 012150Z AUTO 31008KT 9999 -RA FEW015/// SCT019/// 03/M01 Q1004